Terminal Aerodrome Forecast
Issued by NWS

Home | Current Version | Previous Version | Text Only | Print | Product List | Glossary On
Versions: 1 2 3 4 5 6 7 8 9 10 11 12 13 14 15 16 17 18 19 20 21 22 23 24 25 26
000
FTUS46 KOTX 282336
TAFCOE
TAF
KCOE 282336Z 2900/2924 07008KT P6SM BKN070 OVC100
     FM290400 09007KT P6SM -SHRA BKN080 OVC100
     FM290900 08006KT P6SM -RA OVC050
     FM291300 14006KT 6SM -RA BR SCT015 OVC030
     FM292000 15006KT P6SM -RA OVC040
      AMD LTD TO CLD VIS AND WIND=

USA.gov is the U.S. government's official web portal to all federal, state and local government web resources and services.